Time;durP1;ratioP1;P1;durP2;ratioP2;P2;SDS_P1;SDS_P2;PMS_P1;PMS_P2;Temp;Humidity;BMP_temperature;BMP_pressure;BME280_temperature;BME280_humidity;BME280_pressure;Samples;Min_cycle;Max_cycle;Signal;HPM_P1;HPM_P2
2023/12/07 00:01:09;;;;;;;1.42;1.33;;;;;;;-11.32;93.70;101062.53;4915019;29;20086;-81
2023/12/07 00:03:37;;;;;;;1.00;1.00;;;;;;;-11.26;93.60;101070.16;4914840;29;20052;-81
2023/12/07 00:06:05;;;;;;;1.40;1.30;;;;;;;-11.22;93.45;101074.34;4913823;29;20075;-81
2023/12/07 00:08:33;;;;;;;1.38;1.27;;;;;;;-11.24;93.33;101073.53;4914857;29;20048;-81
2023/12/07 00:11:00;;;;;;;1.15;1.15;;;;;;;-11.32;93.58;101065.97;4915291;29;20056;-81
2023/12/07 00:13:27;;;;;;;1.40;1.30;;;;;;;-11.28;93.34;101075.41;4932314;29;20048;-81
2023/12/07 00:15:54;;;;;;;1.13;1.13;;;;;;;-11.30;93.27;101066.78;4903045;29;20064;-81
2023/12/07 00:18:21;;;;;;;1.40;1.30;;;;;;;-11.32;93.14;101072.97;4919687;29;20086;-81
2023/12/07 00:20:49;;;;;;;1.45;1.35;;;;;;;-11.35;93.08;101071.31;4915646;29;20058;-80
2023/12/07 00:23:16;;;;;;;1.40;1.30;;;;;;;-11.43;93.18;101068.97;4915378;29;20132;-81
2023/12/07 00:25:45;;;;;;;1.20;1.17;;;;;;;-11.41;93.24;101067.19;4914991;29;20155;-81
2023/12/07 00:28:13;;;;;;;1.35;1.25;;;;;;;-11.44;93.11;101074.22;4929548;29;20130;-82
2023/12/07 00:30:42;;;;;;;1.40;1.30;;;;;;;-11.47;93.09;101072.59;4915238;29;20048;-81
2023/12/07 00:33:10;;;;;;;1.40;1.30;;;;;;;-11.52;92.84;101078.88;4929468;29;20056;-80
2023/12/07 00:35:42;;;;;;;1.40;1.30;;;;;;;-11.58;93.05;101074.72;4915166;29;20051;-81
2023/12/07 00:38:10;;;;;;;1.20;1.20;;;;;;;-11.62;93.10;101079.22;4918269;29;20090;-81
2023/12/07 00:40:39;;;;;;;1.27;1.25;;;;;;;-11.64;93.29;101075.81;4920607;29;20079;-80
2023/12/07 00:43:07;;;;;;;1.13;1.13;;;;;;;-11.64;93.47;101078.41;4917477;29;20048;-81
2023/12/07 00:45:34;;;;;;;1.50;1.40;;;;;;;-11.64;93.44;101081.00;4915310;29;20063;-81
2023/12/07 00:48:02;;;;;;;1.40;1.30;;;;;;;-11.67;93.34;101078.53;4915589;29;20059;-80
2023/12/07 00:50:29;;;;;;;1.70;1.60;;;;;;;-11.71;93.51;101076.91;4914553;29;20490;-81
2023/12/07 00:52:56;;;;;;;1.02;1.02;;;;;;;-11.71;93.60;101084.72;4915148;29;20448;-82
2023/12/07 00:55:24;;;;;;;1.50;1.40;;;;;;;-11.75;93.68;101088.31;4915414;29;20044;-81
2023/12/07 00:57:51;;;;;;;1.50;1.40;;;;;;;-11.73;93.64;101089.13;4915227;29;20076;-81
2023/12/07 01:00:18;;;;;;;1.13;1.13;;;;;;;-11.75;93.73;101082.28;4916104;29;20128;-80
2023/12/07 01:02:45;;;;;;;1.50;1.40;;;;;;;-11.77;93.71;101082.34;4932407;29;20637;-82
2023/12/07 01:05:13;;;;;;;1.55;1.45;;;;;;;-11.76;93.84;101085.78;4918171;29;20084;-81
2023/12/07 01:07:40;;;;;;;1.27;1.23;;;;;;;-11.77;93.85;101084.94;4917962;29;20059;-81
2023/12/07 01:10:08;;;;;;;1.50;1.40;;;;;;;-11.76;93.64;101093.59;4916904;29;20102;-81
2023/12/07 01:12:36;;;;;;;1.45;1.35;;;;;;;-11.77;93.88;101100.56;4917862;29;20052;-81
2023/12/07 01:15:04;;;;;;;1.70;1.60;;;;;;;-11.72;93.91;101097.78;4918139;29;20052;-82
2023/12/07 01:17:31;;;;;;;1.42;1.33;;;;;;;-11.70;93.84;101101.19;4917121;29;20052;-82
2023/12/07 01:19:58;;;;;;;1.20;1.20;;;;;;;-11.66;93.53;101103.66;4917425;29;20052;-81
2023/12/07 01:22:26;;;;;;;1.45;1.35;;;;;;;-11.65;93.55;101112.31;4917399;29;20071;-81
2023/12/07 01:24:53;;;;;;;1.50;1.40;;;;;;;-11.66;93.45;101095.00;4917311;29;20171;-81
2023/12/07 01:27:21;;;;;;;1.40;1.30;;;;;;;-11.62;93.29;101096.56;4917171;29;20139;-81
2023/12/07 01:29:48;;;;;;;1.40;1.30;;;;;;;-11.62;93.16;101109.59;4917316;29;20142;-81
2023/12/07 01:32:18;;;;;;;1.45;1.35;;;;;;;-11.61;93.23;101106.94;4917449;29;20059;-81
2023/12/07 01:34:45;;;;;;;1.60;1.50;;;;;;;-11.60;93.18;101102.59;4917050;29;20054;-80
2023/12/07 01:37:13;;;;;;;1.13;1.13;;;;;;;-11.56;93.09;101109.41;4917539;29;20056;-81
2023/12/07 01:39:43;;;;;;;1.40;1.30;;;;;;;-11.54;92.82;101106.72;4917192;29;20408;-79
2023/12/07 01:42:11;;;;;;;1.00;1.00;;;;;;;-11.56;92.89;101112.00;4917395;29;20052;-80
2023/12/07 01:44:39;;;;;;;1.27;1.23;;;;;;;-11.54;92.87;101120.63;4917227;29;20063;-81
2023/12/07 01:47:10;;;;;;;1.60;1.50;;;;;;;-11.51;93.03;101119.69;4917177;29;20056;-80
2023/12/07 01:49:38;;;;;;;1.42;1.33;;;;;;;-11.49;92.81;101123.94;4916078;29;20070;-80
2023/12/07 01:52:06;;;;;;;1.40;1.30;;;;;;;-11.50;92.53;101127.44;4916874;29;20048;-81
2023/12/07 01:54:33;;;;;;;1.55;1.45;;;;;;;-11.46;92.78;101128.19;4899941;29;20052;-81
2023/12/07 01:57:03;;;;;;;1.40;1.30;;;;;;;-11.51;92.23;101114.47;4915785;29;20082;-81
2023/12/07 01:59:30;;;;;;;1.52;1.42;;;;;;;-11.48;92.51;101132.59;4916956;29;20044;-81
2023/12/07 02:01:57;;;;;;;1.50;1.40;;;;;;;-11.50;92.32;101124.81;4915676;29;20060;-81
2023/12/07 02:04:25;;;;;;;1.40;1.30;;;;;;;-11.54;92.21;101124.97;4915733;29;20059;-81
2023/12/07 02:06:55;;;;;;;1.40;1.30;;;;;;;-11.58;92.41;101126.84;4916532;29;20541;-81
2023/12/07 02:09:22;;;;;;;1.10;1.10;;;;;;;-11.62;92.40;101125.22;4915829;29;20075;-80
2023/12/07 02:11:49;;;;;;;1.50;1.40;;;;;;;-11.67;92.26;101128.03;4916826;29;20107;-80
2023/12/07 02:14:18;;;;;;;1.50;1.40;;;;;;;-11.71;92.51;101125.56;4916939;29;20052;-80
2023/12/07 02:16:51;;;;;;;1.40;1.30;;;;;;;-11.73;92.34;101136.00;4916678;29;20048;-80
2023/12/07 02:19:21;;;;;;;1.40;1.30;;;;;;;-11.75;92.43;101134.38;4915245;29;20387;-79
2023/12/07 02:22:21;;;;;;;1.60;1.50;;;;;;;-11.76;92.34;101135.28;4916262;29;20071;-80
2023/12/07 02:25:06;;;;;;;1.40;1.30;;;;;;;-11.84;92.34;101140.75;4914667;29;20082;-81
2023/12/07 02:27:37;;;;;;;1.48;1.38;;;;;;;-11.86;92.44;101143.38;4915236;29;20068;-81
2023/12/07 02:30:06;;;;;;;1.50;1.40;;;;;;;-11.88;92.44;101145.22;4922435;29;20142;-81
2023/12/07 02:32:34;;;;;;;1.50;1.40;;;;;;;-11.87;92.40;101146.09;4935181;29;20059;-81
2023/12/07 02:35:01;;;;;;;1.50;1.40;;;;;;;-11.84;92.48;101146.78;4929908;29;20048;-81
2023/12/07 02:37:34;;;;;;;1.40;1.30;;;;;;;-11.78;92.44;101148.34;4914788;29;20144;-82
2023/12/07 02:40:04;;;;;;;1.60;1.50;;;;;;;-11.74;92.41;101147.34;4909248;29;20134;-81
2023/12/07 02:42:32;;;;;;;1.38;1.27;;;;;;;-11.68;92.29;101152.34;4934873;28;20126;-80
2023/12/07 02:44:59;;;;;;;1.40;1.30;;;;;;;-11.65;91.96;101151.41;4949218;29;20055;-81
2023/12/07 02:47:28;;;;;;;1.15;1.15;;;;;;;-11.60;91.96;101150.34;4934637;29;20514;-82
2023/12/07 02:49:55;;;;;;;1.55;1.45;;;;;;;-11.55;92.08;101152.78;4933973;29;20047;-81
2023/12/07 02:52:22;;;;;;;1.23;1.20;;;;;;;-11.51;91.71;101156.16;4933797;29;20047;-81
2023/12/07 02:54:50;;;;;;;1.05;1.05;;;;;;;-11.53;91.71;101151.00;4934864;29;20537;-81
2023/12/07 02:57:17;;;;;;;1.33;1.23;;;;;;;-11.50;91.79;101155.25;4930534;29;20048;-82
2023/12/07 02:59:44;;;;;;;1.05;1.05;;;;;;;-11.54;91.68;101151.91;4915680;29;20060;-82
2023/12/07 03:02:11;;;;;;;1.15;1.15;;;;;;;-11.60;91.57;101165.13;4929677;29;20163;-82
2023/12/07 03:04:41;;;;;;;1.52;1.42;;;;;;;-11.70;91.39;101159.34;4929881;29;20123;-80
2023/12/07 03:07:10;;;;;;;1.60;1.50;;;;;;;-11.72;91.60;101165.50;4914725;29;20060;-81
2023/12/07 03:09:37;;;;;;;1.40;1.30;;;;;;;-11.80;91.73;101158.84;4916416;29;20107;-81
2023/12/07 03:12:04;;;;;;;1.60;1.50;;;;;;;-11.79;91.80;101172.69;4915652;29;20127;-81
2023/12/07 03:14:32;;;;;;;1.20;1.20;;;;;;;-11.79;91.85;101170.94;4915512;29;20048;-81
2023/12/07 03:17:00;;;;;;;1.60;1.50;;;;;;;-11.76;91.91;101180.41;4914724;29;20048;-81
2023/12/07 03:19:27;;;;;;;1.50;1.40;;;;;;;-11.75;91.91;101181.25;4917065;29;20059;-81
2023/12/07 03:21:54;;;;;;;1.58;1.48;;;;;;;-11.71;91.84;101183.72;4920013;29;20458;-82
2023/12/07 03:24:22;;;;;;;1.35;1.25;;;;;;;-11.67;91.96;101187.94;4928764;29;20106;-81
2023/12/07 03:26:49;;;;;;;1.15;1.15;;;;;;;-11.66;91.87;101194.00;4934131;29;20399;-81
2023/12/07 03:29:16;;;;;;;1.70;1.60;;;;;;;-11.65;91.93;101193.06;4925754;29;20506;-80
2023/12/07 03:31:46;;;;;;;1.40;1.30;;;;;;;-11.64;91.67;101202.63;4924362;29;20051;-80
2023/12/07 03:34:15;;;;;;;1.40;1.30;;;;;;;-11.59;91.66;101198.09;4924743;29;20138;-81
2023/12/07 03:36:46;;;;;;;1.50;1.40;;;;;;;-11.60;91.88;101199.84;4914616;29;20048;-81
2023/12/07 03:39:14;;;;;;;1.40;1.30;;;;;;;-11.59;91.76;101198.09;4930062;29;20149;-80
2023/12/07 03:41:42;;;;;;;1.15;1.15;;;;;;;-11.57;92.01;101202.38;4933576;29;20091;-82
2023/12/07 03:44:09;;;;;;;1.50;1.40;;;;;;;-11.60;91.71;101205.06;4925025;29;20068;-80
2023/12/07 03:46:36;;;;;;;1.30;1.20;;;;;;;-11.61;91.85;101211.19;4923253;29;20056;-80
2023/12/07 03:49:04;;;;;;;1.70;1.60;;;;;;;-11.62;91.81;101206.00;4922945;29;20553;-81
2023/12/07 03:51:31;;;;;;;1.50;1.40;;;;;;;-11.64;91.46;101205.22;4914450;29;20048;-81
2023/12/07 03:53:58;;;;;;;1.42;1.33;;;;;;;-11.67;91.60;101215.72;4914666;29;20052;-81
2023/12/07 03:56:26;;;;;;;1.60;1.50;;;;;;;-11.68;91.65;101212.28;4914604;29;20052;-81
2023/12/07 03:58:54;;;;;;;1.42;1.33;;;;;;;-11.62;91.82;101213.81;4914704;29;20055;-79
2023/12/07 04:01:23;;;;;;;1.33;1.25;;;;;;;-11.62;91.63;101219.03;4923926;29;20048;-79
2023/12/07 04:03:51;;;;;;;1.08;1.08;;;;;;;-11.63;91.62;101209.53;4929074;29;20051;-78
2023/12/07 04:06:20;;;;;;;1.38;1.27;;;;;;;-11.64;91.39;101213.88;4917603;29;20056;-79
2023/12/07 04:08:48;;;;;;;1.40;1.30;;;;;;;-11.65;91.38;101213.91;4914886;29;20155;-80
2023/12/07 04:11:15;;;;;;;1.50;1.40;;;;;;;-11.58;91.39;101220.66;4911835;29;20055;-79
2023/12/07 04:13:43;;;;;;;1.52;1.42;;;;;;;-11.58;91.21;101226.69;4911811;29;20052;-78
2023/12/07 04:16:10;;;;;;;1.42;1.33;;;;;;;-11.60;91.21;101228.50;4918699;29;20059;-79
2023/12/07 04:18:38;;;;;;;1.40;1.30;;;;;;;-11.61;91.15;101221.59;4919726;29;20047;-78
2023/12/07 04:21:06;;;;;;;1.27;1.23;;;;;;;-11.61;91.10;101224.19;4916491;29;20056;-80
2023/12/07 04:23:33;;;;;;;1.52;1.42;;;;;;;-11.61;91.13;101225.97;4914082;29;20052;-80
2023/12/07 04:26:03;;;;;;;1.45;1.35;;;;;;;-11.62;91.27;101219.91;4928387;29;20071;-80
2023/12/07 04:28:31;;;;;;;1.50;1.40;;;;;;;-11.64;90.94;101226.91;4925100;29;20059;-81
2023/12/07 04:30:58;;;;;;;1.60;1.50;;;;;;;-11.64;91.25;101220.84;4918703;29;20043;-82
2023/12/07 04:33:25;;;;;;;1.70;1.60;;;;;;;-11.71;91.07;101224.56;4919556;29;20052;-80
2023/12/07 04:35:55;;;;;;;1.60;1.50;;;;;;;-11.80;90.96;101217.84;4922820;29;20519;-80
2023/12/07 04:38:23;;;;;;;1.45;1.35;;;;;;;-11.87;91.24;101219.00;4917770;29;20135;-79
2023/12/07 04:40:50;;;;;;;1.40;1.30;;;;;;;-11.91;91.11;101228.66;4924716;29;20052;-78
2023/12/07 04:43:17;;;;;;;1.48;1.38;;;;;;;-11.94;91.57;101230.50;4923498;29;20055;-79
2023/12/07 04:45:45;;;;;;;1.40;1.30;;;;;;;-11.94;91.46;101227.91;4916175;29;20063;-79
2023/12/07 04:48:12;;;;;;;1.70;1.60;;;;;;;-11.97;91.37;101234.06;4911722;29;20084;-79
2023/12/07 04:50:40;;;;;;;1.40;1.30;;;;;;;-12.05;91.29;101233.41;4931912;28;20538;-79
2023/12/07 04:53:07;;;;;;;1.60;1.50;;;;;;;-12.12;91.53;101234.53;4922796;29;20162;-79
2023/12/07 04:55:35;;;;;;;1.60;1.50;;;;;;;-12.21;91.40;101230.44;4930109;29;20056;-80
2023/12/07 04:58:03;;;;;;;1.50;1.40;;;;;;;-12.24;91.74;101238.34;4916100;29;20129;-80
2023/12/07 05:00:30;;;;;;;1.45;1.35;;;;;;;-12.28;91.65;101237.59;4924917;29;20048;-81
2023/12/07 05:02:57;;;;;;;1.45;1.35;;;;;;;-12.32;91.75;101237.72;4926397;29;20083;-83
2023/12/07 05:05:24;;;;;;;1.70;1.60;;;;;;;-12.37;91.87;101240.44;4933126;29;20067;-79
2023/12/07 05:07:52;;;;;;;1.40;1.30;;;;;;;-12.33;91.92;101238.59;4925089;29;20548;-80
2023/12/07 05:10:19;;;;;;;1.70;1.60;;;;;;;-12.30;92.30;101244.56;4923497;29;20052;-80
2023/12/07 05:12:47;;;;;;;1.58;1.48;;;;;;;-12.25;92.10;101247.06;4925312;29;20074;-79
2023/12/07 05:15:14;;;;;;;1.80;1.70;;;;;;;-12.25;92.07;101249.66;4927925;29;20146;-79
2023/12/07 05:17:41;;;;;;;1.25;1.20;;;;;;;-12.22;92.08;101252.16;4922017;29;20143;-78
2023/12/07 05:20:09;;;;;;;1.60;1.50;;;;;;;-12.19;92.01;101254.66;4923966;29;20541;-78
2023/12/07 05:22:36;;;;;;;1.50;1.40;;;;;;;-12.17;91.85;101252.88;4937741;29;20056;-78
2023/12/07 05:25:04;;;;;;;1.40;1.30;;;;;;;-12.12;91.80;101263.16;4924503;29;20052;-77
2023/12/07 05:27:32;;;;;;;1.50;1.40;;;;;;;-12.06;91.77;101263.81;4924317;29;20099;-80
2023/12/07 05:29:59;;;;;;;1.50;1.40;;;;;;;-11.99;91.75;101261.91;4923723;29;20159;-78
2023/12/07 05:32:26;;;;;;;1.40;1.30;;;;;;;-11.94;91.44;101270.41;4923658;29;20454;-79
2023/12/07 05:34:54;;;;;;;1.50;1.40;;;;;;;-11.91;91.51;101277.28;4921992;29;20052;-80
2023/12/07 05:37:21;;;;;;;1.60;1.50;;;;;;;-11.87;91.41;101284.13;4917231;29;20161;-78
2023/12/07 05:39:48;;;;;;;1.63;1.52;;;;;;;-11.76;91.27;101288.97;4915221;29;20052;-79
2023/12/07 05:42:15;;;;;;;1.60;1.50;;;;;;;-11.73;90.99;101287.09;4916870;29;20067;-79
2023/12/07 05:44:44;;;;;;;1.60;1.50;;;;;;;-11.67;90.92;101292.16;4916313;29;20059;-78
2023/12/07 05:47:11;;;;;;;1.70;1.60;;;;;;;-11.64;90.99;101293.81;4577347;29;9999836;-78
2023/12/07 05:49:38;;;;;;;1.50;1.40;;;;;;;-11.60;90.90;101295.41;4921747;29;20052;-78
2023/12/07 05:52:06;;;;;;;1.70;1.60;;;;;;;-11.58;90.68;101296.22;4922048;29;20492;-78
2023/12/07 05:54:34;;;;;;;1.80;1.70;;;;;;;-11.54;90.40;101294.34;4923733;29;20520;-78
2023/12/07 05:57:01;;;;;;;1.20;1.17;;;;;;;-11.53;90.33;101291.72;4922345;29;20091;-78
2023/12/07 05:59:29;;;;;;;1.60;1.50;;;;;;;-11.49;90.33;101297.66;4920797;29;20143;-79
2023/12/07 06:01:56;;;;;;;1.27;1.23;;;;;;;-11.47;89.97;101290.66;4919560;29;20080;-78
2023/12/07 06:04:23;;;;;;;1.60;1.50;;;;;;;-11.43;89.83;101295.72;4922388;29;20066;-79
2023/12/07 06:06:51;;;;;;;1.40;1.30;;;;;;;-11.43;89.70;101300.94;4921560;29;20059;-79
2023/12/07 06:09:18;;;;;;;1.60;1.50;;;;;;;-11.39;89.77;101299.97;4940018;29;20076;-79
2023/12/07 06:11:45;;;;;;;1.42;1.33;;;;;;;-11.36;89.39;101305.06;4931528;29;20102;-79
2023/12/07 06:14:13;;;;;;;1.52;1.42;;;;;;;-11.35;89.36;101291.13;4936445;29;20048;-78
2023/12/07 06:16:40;;;;;;;1.60;1.50;;;;;;;-11.32;88.94;101297.13;4923745;29;20056;-79
2023/12/07 06:19:07;;;;;;;1.20;1.20;;;;;;;-11.29;88.93;101299.66;4923702;29;20052;-78
2023/12/07 06:21:35;;;;;;;1.48;1.38;;;;;;;-11.27;88.89;101308.28;4921278;29;20466;-79
2023/12/07 06:24:03;;;;;;;1.70;1.60;;;;;;;-11.33;88.84;101287.63;4935517;29;20048;-79
2023/12/07 06:26:30;;;;;;;1.55;1.45;;;;;;;-11.26;88.85;101313.44;4921288;29;20059;-79
2023/12/07 06:28:57;;;;;;;1.45;1.35;;;;;;;-11.27;88.51;101308.28;4922265;29;20059;-79
2023/12/07 06:31:25;;;;;;;1.67;1.58;;;;;;;-11.31;88.33;101312.75;4936114;29;20594;-79
2023/12/07 06:33:52;;;;;;;1.80;1.70;;;;;;;-11.32;88.02;101307.56;4919231;29;20056;-79
2023/12/07 06:36:21;;;;;;;1.70;1.60;;;;;;;-11.35;87.95;101308.53;4918952;29;20075;-79
2023/12/07 06:38:48;;;;;;;1.60;1.50;;;;;;;-11.33;87.76;101316.31;4920055;29;20048;-80
2023/12/07 06:41:16;;;;;;;1.80;1.70;;;;;;;-11.31;87.64;101307.53;4921419;29;20043;-79
2023/12/07 06:43:44;;;;;;;1.50;1.40;;;;;;;-11.29;87.60;101312.69;4921238;29;20509;-79
2023/12/07 06:46:16;;;;;;;1.65;1.55;;;;;;;-11.26;87.57;101308.25;4919385;29;20437;-79
2023/12/07 06:48:43;;;;;;;1.60;1.50;;;;;;;-11.22;87.58;101315.03;4929702;29;20134;-79
2023/12/07 06:51:12;;;;;;;1.67;1.58;;;;;;;-11.18;87.42;101308.00;4931159;29;20052;-79
2023/12/07 06:53:40;;;;;;;1.40;1.30;;;;;;;-11.19;86.87;101311.47;4915001;29;20107;-80
2023/12/07 06:56:08;;;;;;;1.70;1.60;;;;;;;-11.20;86.62;101312.41;4916822;29;20078;-80
2023/12/07 06:58:36;;;;;;;1.63;1.52;;;;;;;-11.21;86.47;101308.09;4916564;29;20180;-79
2023/12/07 07:01:03;;;;;;;1.40;1.30;;;;;;;-11.23;86.09;101304.69;4920355;29;20058;-79
2023/12/07 07:03:31;;;;;;;1.60;1.50;;;;;;;-11.17;85.94;101313.13;4922141;29;20380;-79
2023/12/07 07:05:59;;;;;;;1.60;1.50;;;;;;;-11.13;85.68;101309.53;4919631;29;20080;-79
2023/12/07 07:08:26;;;;;;;1.60;1.50;;;;;;;-11.07;85.62;101311.09;4921039;29;20486;-79
2023/12/07 07:10:56;;;;;;;1.60;1.50;;;;;;;-11.02;85.35;101314.41;4933321;29;20063;-79
2023/12/07 07:13:23;;;;;;;1.88;1.77;;;;;;;-11.05;84.83;101311.91;4920712;29;20130;-80
2023/12/07 07:15:50;;;;;;;1.80;1.70;;;;;;;-11.08;84.75;101314.59;4922295;29;20083;-79
2023/12/07 07:18:18;;;;;;;1.60;1.50;;;;;;;-11.06;84.46;101318.03;4923443;29;20058;-80
2023/12/07 07:20:46;;;;;;;1.65;1.55;;;;;;;-10.99;84.28;101316.91;4929362;29;20510;-79
2023/12/07 07:23:14;;;;;;;1.55;1.45;;;;;;;-10.94;84.20;101315.03;4930482;29;20175;-79
2023/12/07 07:25:43;;;;;;;1.60;1.50;;;;;;;-10.76;83.91;101317.88;4930281;29;20059;-80
2023/12/07 07:28:11;;;;;;;1.67;1.58;;;;;;;-10.50;83.31;101315.25;4945896;29;20051;-79
2023/12/07 07:30:38;;;;;;;1.83;1.73;;;;;;;-10.29;82.47;101313.63;4930682;29;20047;-79
2023/12/07 07:33:06;;;;;;;1.10;1.10;;;;;;;-10.09;81.36;101320.72;4930704;29;20703;-79
2023/12/07 07:35:33;;;;;;;1.70;1.60;;;;;;;-9.85;80.82;101318.09;4919439;29;20055;-79
2023/12/07 07:38:00;;;;;;;1.60;1.50;;;;;;;-9.61;79.82;101321.53;4912000;29;20142;-79
2023/12/07 07:40:28;;;;;;;1.70;1.60;;;;;;;-9.44;78.96;101321.75;4911365;29;20530;-80
2023/12/07 07:42:55;;;;;;;1.55;1.45;;;;;;;-9.25;77.81;101331.47;4911899;29;20486;-79
2023/12/07 07:45:22;;;;;;;1.50;1.40;;;;;;;-9.09;77.07;101332.53;4912005;29;20043;-79
2023/12/07 07:47:49;;;;;;;1.63;1.52;;;;;;;-8.89;76.39;101329.13;4911396;29;20433;-80
2023/12/07 07:50:17;;;;;;;1.40;1.30;;;;;;;-8.78;75.64;101326.91;4912287;29;20056;-80
2023/12/07 07:52:45;;;;;;;1.45;1.35;;;;;;;-8.59;74.85;101336.63;4912121;29;20048;-79
2023/12/07 07:55:12;;;;;;;1.40;1.30;;;;;;;-8.44;74.26;101332.50;4912387;29;20052;-80
2023/12/07 07:57:39;;;;;;;1.35;1.27;;;;;;;-8.32;73.42;101335.41;4910216;29;20048;-80
2023/12/07 08:00:08;;;;;;;1.30;1.23;;;;;;;-8.14;72.92;101332.88;4912485;29;20404;-80
2023/12/07 08:02:36;;;;;;;1.40;1.30;;;;;;;-7.94;72.54;101335.47;4912050;29;20585;-80
2023/12/07 08:05:03;;;;;;;1.40;1.30;;;;;;;-8.00;71.95;101329.66;4911928;29;20134;-79
2023/12/07 08:07:32;;;;;;;1.40;1.30;;;;;;;-7.76;71.55;101332.94;4925967;29;20666;-79
2023/12/07 08:09:59;;;;;;;1.52;1.42;;;;;;;-7.38;71.14;101339.03;4913432;29;20063;-80
2023/12/07 08:12:29;;;;;;;1.60;1.50;;;;;;;-7.11;69.65;101341.25;4919893;29;20227;-80
2023/12/07 08:14:56;;;;;;;1.40;1.30;;;;;;;-7.02;68.94;101346.91;4934780;29;20051;-79
2023/12/07 08:17:25;;;;;;;1.45;1.35;;;;;;;-7.00;67.73;101334.56;4932757;29;20056;-79
2023/12/07 08:19:53;;;;;;;1.35;1.25;;;;;;;-6.80;67.50;101332.72;4915931;29;20404;-80
2023/12/07 08:22:20;;;;;;;1.40;1.30;;;;;;;-6.54;66.41;101340.13;4914747;29;20051;-80
2023/12/07 08:24:47;;;;;;;1.15;1.13;;;;;;;-6.47;66.26;101337.22;4930214;29;20056;-80
2023/12/07 08:27:29;;;;;;;1.33;1.23;;;;;;;-6.15;65.28;101331.16;4915784;29;20071;-80
2023/12/07 08:29:56;;;;;;;1.17;1.17;;;;;;;-5.78;64.71;101331.78;4915620;29;20612;-80
2023/12/07 08:32:25;;;;;;;1.27;1.20;;;;;;;-5.95;64.64;101340.63;4914869;29;20052;-80
2023/12/07 08:34:53;;;;;;;1.40;1.30;;;;;;;-5.97;64.11;101331.09;4914072;29;20058;-79
2023/12/07 08:37:20;;;;;;;1.20;1.20;;;;;;;-6.14;63.45;101327.56;4915821;29;20052;-81
2023/12/07 08:39:48;;;;;;;1.48;1.38;;;;;;;-5.45;63.23;101317.72;4914740;29;20142;-80
2023/12/07 08:42:16;;;;;;;1.40;1.30;;;;;;;-5.16;62.10;101317.88;4914626;29;20458;-80
2023/12/07 08:44:46;;;;;;;1.00;1.00;;;;;;;-5.40;61.95;101315.66;4928802;29;20056;-80
2023/12/07 08:47:13;;;;;;;1.10;1.10;;;;;;;-5.48;61.65;101323.16;4928568;29;20118;-80
2023/12/07 08:49:41;;;;;;;1.02;1.02;;;;;;;-5.72;62.12;101326.19;4914986;29;20052;-79
2023/12/07 08:52:09;;;;;;;1.10;1.10;;;;;;;-5.30;61.23;101324.75;4915020;29;20062;-79
2023/12/07 08:54:57;;;;;;;1.40;1.30;;;;;;;-5.10;59.82;101320.16;4914598;29;20507;-80
2023/12/07 08:57:24;;;;;;;1.50;1.40;;;;;;;-5.34;59.50;101320.59;4915360;29;20499;-80
2023/12/07 08:59:52;;;;;;;1.40;1.30;;;;;;;-5.24;59.92;101327.06;4914199;29;20052;-81
2023/12/07 09:02:19;;;;;;;1.10;1.10;;;;;;;-5.39;59.71;101327.91;4914989;29;20055;-80
2023/12/07 09:05:04;;;;;;;1.10;1.10;;;;;;;-5.39;60.51;101322.66;4914177;29;20056;-80
2023/12/07 09:07:31;;;;;;;1.38;1.27;;;;;;;-4.75;59.76;101307.59;4914794;29;20316;-79
2023/12/07 09:09:59;;;;;;;1.20;1.20;;;;;;;-4.46;58.25;101305.84;4914108;29;20048;-80
2023/12/07 09:12:26;;;;;;;1.52;1.42;;;;;;;-4.30;58.61;101312.84;4918449;29;20099;-80
2023/12/07 09:15:07;;;;;;;1.10;1.10;;;;;;;-5.27;58.37;101311.41;4943827;29;20153;-80
2023/12/07 09:17:37;;;;;;;1.10;1.10;;;;;;;-5.91;59.79;101312.31;4929988;29;20060;-80
2023/12/07 09:20:12;;;;;;;1.40;1.30;;;;;;;-5.10;59.68;101314.88;4913348;29;20055;-79
2023/12/07 09:22:45;;;;;;;0.90;0.90;;;;;;;-4.79;58.06;101309.53;4916735;29;20052;-79
2023/12/07 09:25:18;;;;;;;1.10;1.10;;;;;;;-5.32;58.63;101318.72;4923638;29;20071;-81
2023/12/07 09:27:48;;;;;;;1.25;1.20;;;;;;;-5.48;57.87;101324.00;4920687;29;20597;-80
2023/12/07 09:30:16;;;;;;;1.42;1.33;;;;;;;-5.26;58.11;101318.38;4922718;29;20048;-80
2023/12/07 09:32:43;;;;;;;1.35;1.27;;;;;;;-5.79;58.08;101318.72;4922520;29;20494;-79
2023/12/07 09:35:18;;;;;;;1.20;1.20;;;;;;;-6.31;58.84;101309.19;4938355;29;20062;-80
2023/12/07 09:37:49;;;;;;;1.40;1.30;;;;;;;-6.39;59.20;101316.63;4924836;29;20115;-80
2023/12/07 09:40:24;;;;;;;1.45;1.35;;;;;;;-6.22;58.94;101315.78;4929082;29;20514;-80
2023/12/07 09:42:51;;;;;;;1.50;1.40;;;;;;;-6.09;58.54;101316.81;4917744;29;20120;-81
2023/12/07 09:45:20;;;;;;;1.08;1.08;;;;;;;-5.99;57.68;101311.94;4912789;29;20060;-79
2023/12/07 09:47:52;;;;;;;1.08;1.08;;;;;;;-6.88;58.49;101314.72;4918715;29;20052;-79
2023/12/07 09:50:22;;;;;;;1.08;1.08;;;;;;;-7.01;58.83;101311.84;4915325;29;20091;-79
2023/12/07 09:52:51;;;;;;;1.38;1.27;;;;;;;-7.26;59.86;101317.44;4913878;29;20481;-81
2023/12/07 09:55:34;;;;;;;1.40;1.30;;;;;;;-6.62;59.73;101315.19;4926584;29;20059;-81
2023/12/07 09:58:07;;;;;;;1.40;1.30;;;;;;;-6.35;59.27;101315.56;4912181;29;20127;-81
2023/12/07 10:00:36;;;;;;;1.48;1.38;;;;;;;-5.80;58.80;101315.22;4912242;29;20142;-80
2023/12/07 10:03:07;;;;;;;1.40;1.30;;;;;;;-5.32;57.06;101316.06;4913374;29;20514;-80
2023/12/07 10:05:57;;;;;;;1.50;1.40;;;;;;;-4.32;55.86;101314.75;4912730;29;20044;-79
2023/12/07 10:08:32;;;;;;;1.73;1.63;;;;;;;-3.42;54.38;101310.91;4912468;29;20048;-81
2023/12/07 10:11:12;;;;;;;1.75;1.65;;;;;;;-3.25;53.12;101312.47;4911700;29;20062;-80
2023/12/07 10:13:40;;;;;;;1.70;1.60;;;;;;;-2.98;52.77;101309.84;4922069;29;20104;-80
2023/12/07 10:16:11;;;;;;;1.60;1.50;;;;;;;-2.67;52.19;101313.94;4920080;29;20056;-79
2023/12/07 10:18:41;;;;;;;1.85;1.75;;;;;;;-2.34;52.05;101315.25;4921431;29;20427;-81
2023/12/07 10:21:12;;;;;;;1.55;1.45;;;;;;;-2.08;50.72;101318.72;4913275;29;20074;-80
2023/12/07 10:23:46;;;;;;;1.70;1.60;;;;;;;-2.19;50.49;101308.91;4911667;29;20055;-80
2023/12/07 10:26:19;;;;;;;1.73;1.63;;;;;;;-2.34;50.49;101317.88;4911465;29;20064;-78
2023/12/07 10:28:53;;;;;;;1.70;1.60;;;;;;;-3.07;51.05;101317.38;4910937;29;20071;-77
2023/12/07 10:31:23;;;;;;;1.63;1.52;;;;;;;-3.12;51.54;101305.44;4925445;29;20680;-80
2023/12/07 10:33:51;;;;;;;1.58;1.48;;;;;;;-3.01;51.64;101310.00;4911329;29;20363;-79
2023/12/07 10:36:20;;;;;;;1.73;1.63;;;;;;;-2.90;51.32;101313.66;4912632;29;20070;-79
2023/12/07 10:38:50;;;;;;;1.67;1.58;;;;;;;-3.11;51.23;101305.34;4912122;29;20048;-79
2023/12/07 10:41:20;;;;;;;1.58;1.48;;;;;;;-3.30;51.67;101299.56;4911737;29;20171;-80
2023/12/07 10:43:59;;;;;;;1.85;1.75;;;;;;;-3.24;51.89;101301.81;4911457;29;20062;-79
2023/12/07 10:46:29;;;;;;;1.60;1.50;;;;;;;-3.13;51.67;101307.25;4910632;29;20084;-79
2023/12/07 10:49:07;;;;;;;1.50;1.40;;;;;;;-2.79;51.53;101305.00;4927654;29;20131;-79
2023/12/07 10:52:00;;;;;;;1.60;1.50;;;;;;;-2.67;51.21;101306.84;4912655;29;20072;-79
2023/12/07 10:55:07;;;;;;;1.52;1.42;;;;;;;-2.91;51.27;101316.38;4902941;29;20044;-80
2023/12/07 10:57:37;;;;;;;1.50;1.40;;;;;;;-2.94;51.41;101316.59;4916274;29;20627;-81
2023/12/07 11:00:08;;;;;;;1.23;1.17;;;;;;;-3.72;51.34;101314.56;4925922;29;20687;-80
2023/12/07 11:02:36;;;;;;;1.10;1.10;;;;;;;-4.77;53.15;101320.00;4895307;29;20040;-80
2023/12/07 11:05:04;;;;;;;1.60;1.50;;;;;;;-4.21;53.46;101312.28;4913480;29;20531;-80
2023/12/07 11:08:11;;;;;;;1.33;1.23;;;;;;;-4.49;53.47;101321.00;4901974;29;20060;-80
2023/12/07 11:10:55;;;;;;;1.50;1.40;;;;;;;-4.03;53.42;101321.72;4885830;29;20057;-81
2023/12/07 11:13:37;;;;;;;1.50;1.40;;;;;;;-3.82;52.54;101324.84;4890350;29;20057;-81
2023/12/07 11:16:05;;;;;;;1.50;1.40;;;;;;;-3.83;52.59;101317.00;4889358;29;20423;-81
2023/12/07 11:18:35;;;;;;;1.73;1.63;;;;;;;-3.81;52.32;101317.75;4885923;29;20076;-80
2023/12/07 11:21:06;;;;;;;1.75;1.65;;;;;;;-3.22;51.33;101312.25;4880963;29;20052;-80
2023/12/07 11:23:34;;;;;;;1.52;1.42;;;;;;;-3.24;51.11;101315.03;4890398;29;20048;-79
2023/12/07 11:26:04;;;;;;;1.85;1.75;;;;;;;-3.31;50.98;101314.56;4898095;29;20057;-80
2023/12/07 11:28:36;;;;;;;1.75;1.65;;;;;;;-3.34;50.91;101314.75;4899756;29;20052;-80